createdAt,value
2018-09-03T00:02:19.766Z,16.18
2018-09-03T00:04:48.932Z,16.18
2018-09-03T00:07:18.651Z,16.18
2018-09-03T00:09:47.945Z,16.17
2018-09-03T00:12:17.228Z,16.11
2018-09-03T00:14:46.790Z,16.08
2018-09-03T00:17:16.190Z,16.06
2018-09-03T00:19:45.939Z,16.02
2018-09-03T00:22:15.382Z,16.03
2018-09-03T00:24:44.894Z,16.02
2018-09-03T00:27:14.189Z,15.93
2018-09-03T00:29:43.724Z,15.92
2018-09-03T00:32:18.409Z,15.93
2018-09-03T00:34:52.930Z,15.90
2018-09-03T00:37:27.513Z,15.88
2018-09-03T00:40:01.810Z,15.85
2018-09-03T00:42:36.212Z,15.82
2018-09-03T00:45:11.036Z,15.82
2018-09-03T00:47:40.682Z,15.82
2018-09-03T00:50:10.365Z,15.84
2018-09-03T00:52:39.699Z,15.82
2018-09-03T00:55:09.061Z,15.80
2018-09-03T00:57:38.276Z,15.76
2018-09-03T01:00:07.938Z,15.72
2018-09-03T01:02:37.404Z,15.68
2018-09-03T01:05:06.763Z,15.64
2018-09-03T01:07:36.243Z,15.65
2018-09-03T01:10:06.046Z,15.66
2018-09-03T01:12:35.166Z,15.65
2018-09-03T01:15:05.458Z,15.64
2018-09-03T01:17:34.834Z,15.60
2018-09-03T01:20:04.229Z,15.58
2018-09-03T01:22:33.616Z,15.51
2018-09-03T01:25:02.622Z,15.48
2018-09-03T01:27:31.910Z,15.50
2018-09-03T01:30:01.128Z,15.51
2018-09-03T01:32:30.155Z,15.52
2018-09-03T01:34:59.088Z,15.53
2018-09-03T01:37:28.213Z,15.49
2018-09-03T01:39:57.690Z,15.43
2018-09-03T01:42:26.600Z,15.37
2018-09-03T01:44:55.725Z,15.33
2018-09-03T01:47:25.218Z,15.34
2018-09-03T01:49:54.134Z,15.35
2018-09-03T01:52:23.251Z,15.28
2018-09-03T01:54:52.272Z,15.20
2018-09-03T01:57:21.191Z,15.20
2018-09-03T01:59:50.451Z,15.16
2018-09-03T02:02:20.034Z,15.15
2018-09-03T02:04:48.893Z,15.14
2018-09-03T02:07:18.071Z,15.16
2018-09-03T02:09:47.411Z,15.16
2018-09-03T02:12:16.891Z,15.14
2018-09-03T02:14:45.988Z,15.10
2018-09-03T02:17:15.509Z,15.09
2018-09-03T02:19:44.765Z,15.11
2018-09-03T02:22:14.356Z,15.11
2018-09-03T02:24:43.767Z,15.09
2018-09-03T02:27:12.831Z,14.39
2018-09-03T02:29:42.050Z,15.07
2018-09-03T02:32:11.089Z,15.03
2018-09-03T02:34:40.117Z,15.05
2018-09-03T02:37:09.622Z,15.08
2018-09-03T02:39:38.766Z,14.56
2018-09-03T02:42:07.779Z,15.01
2018-09-03T02:44:37.282Z,14.95
2018-09-03T02:47:07.079Z,14.88
2018-09-03T02:49:36.170Z,14.89
2018-09-03T02:52:05.839Z,14.88
2018-09-03T02:54:34.855Z,14.90
2018-09-03T02:57:04.351Z,14.90
2018-09-03T02:59:33.682Z,14.89
2018-09-03T03:02:02.611Z,14.87
2018-09-03T03:04:31.613Z,14.82
2018-09-03T03:07:01.080Z,14.80
2018-09-03T03:09:30.527Z,14.75
2018-09-03T03:11:59.451Z,14.73
2018-09-03T03:14:28.772Z,14.76
2018-09-03T03:16:58.223Z,14.74
2018-09-03T03:19:27.445Z,14.71
2018-09-03T03:21:56.485Z,14.71
2018-09-03T03:24:25.456Z,14.65
2018-09-03T03:26:54.884Z,14.63
2018-09-03T03:29:24.328Z,14.63
2018-09-03T03:31:53.638Z,14.63
2018-09-03T03:34:22.815Z,14.61
2018-09-03T03:36:52.044Z,14.61
2018-09-03T03:39:21.399Z,14.61
2018-09-03T03:41:50.379Z,14.56
2018-09-03T03:44:19.614Z,14.57
2018-09-03T03:46:48.694Z,14.59
2018-09-03T03:49:18.400Z,14.59
2018-09-03T03:51:48.226Z,14.61
2018-09-03T03:54:17.709Z,14.61
2018-09-03T03:56:46.887Z,14.60
2018-09-03T03:59:16.403Z,14.59
2018-09-03T04:01:45.613Z,14.57
2018-09-03T04:04:14.684Z,14.56
2018-09-03T04:06:44.600Z,14.55
2018-09-03T04:09:14.128Z,13.87
2018-09-03T04:11:43.692Z,14.51
2018-09-03T04:14:12.899Z,14.48
2018-09-03T04:16:42.023Z,14.40
2018-09-03T04:19:11.397Z,14.40
2018-09-03T04:21:40.602Z,14.39
2018-09-03T04:24:09.946Z,14.38
2018-09-03T04:26:39.849Z,14.36
2018-09-03T04:29:09.757Z,14.37
2018-09-03T04:31:39.259Z,14.37
2018-09-03T04:34:08.261Z,14.40
2018-09-03T04:36:37.950Z,14.38
2018-09-03T04:39:09.930Z,14.41
2018-09-03T04:41:39.028Z,14.42
2018-09-03T04:44:08.831Z,14.40
2018-09-03T04:46:37.812Z,14.38
2018-09-03T04:49:07.233Z,14.39
2018-09-03T04:51:36.688Z,14.38
2018-09-03T04:54:06.057Z,14.40
2018-09-03T04:56:35.588Z,14.46
2018-09-03T04:59:05.160Z,14.50
2018-09-03T05:01:34.566Z,14.54
2018-09-03T05:04:04.288Z,14.52
2018-09-03T05:06:33.982Z,14.58
2018-09-03T05:09:03.178Z,14.63
2018-09-03T05:11:32.465Z,14.60
2018-09-03T05:14:01.464Z,14.65
2018-09-03T05:16:30.862Z,14.72
2018-09-03T05:18:59.788Z,14.75
2018-09-03T05:21:29.083Z,14.75
2018-09-03T05:23:58.201Z,14.72
2018-09-03T05:26:27.344Z,14.71
2018-09-03T05:28:56.424Z,14.71
2018-09-03T05:31:25.669Z,14.72
2018-09-03T05:33:54.967Z,14.76
2018-09-03T05:36:24.298Z,14.79
2018-09-03T05:38:53.382Z,14.85
2018-09-03T05:41:22.745Z,14.91
2018-09-03T05:43:52.031Z,14.92
2018-09-03T05:46:21.020Z,14.96
2018-09-03T05:48:50.338Z,14.98
2018-09-03T05:51:19.457Z,15.04
2018-09-03T05:53:48.519Z,15.09
2018-09-03T05:56:18.683Z,15.06
2018-09-03T05:58:48.015Z,15.20
2018-09-03T06:01:17.347Z,15.26
2018-09-03T06:03:46.705Z,15.30
2018-09-03T06:06:15.911Z,15.34
2018-09-03T06:08:45.092Z,15.40
2018-09-03T06:11:14.359Z,15.46
2018-09-03T06:13:43.767Z,15.59
2018-09-03T06:16:12.814Z,15.70
2018-09-03T06:18:42.024Z,15.74
2018-09-03T06:21:11.087Z,15.80
2018-09-03T06:23:40.163Z,15.84
2018-09-03T06:26:09.413Z,15.92
2018-09-03T06:28:38.343Z,16.04
2018-09-03T06:31:07.627Z,16.09
2018-09-03T06:33:36.906Z,16.15
2018-09-03T06:36:06.368Z,16.24
2018-09-03T06:38:35.300Z,16.38
2018-09-03T06:41:05.360Z,16.49
2018-09-03T06:43:34.339Z,16.60
2018-09-03T06:46:03.370Z,16.67
2018-09-03T06:48:32.479Z,16.73
2018-09-03T06:51:01.383Z,16.78
2018-09-03T06:53:30.818Z,16.87
2018-09-03T06:55:59.870Z,16.93
2018-09-03T06:58:28.826Z,16.98
2018-09-03T07:00:57.784Z,17.06
2018-09-03T07:03:27.374Z,17.09
2018-09-03T07:05:56.275Z,17.16
2018-09-03T07:08:25.357Z,17.19
2018-09-03T07:10:54.606Z,17.26
2018-09-03T07:13:23.607Z,17.34
2018-09-03T07:15:52.661Z,17.45
2018-09-03T07:18:22.455Z,17.50
2018-09-03T07:20:51.630Z,17.55
2018-09-03T07:23:21.802Z,17.65
2018-09-03T07:25:51.008Z,17.71
2018-09-03T07:28:20.076Z,17.83
2018-09-03T07:30:49.209Z,17.90
2018-09-03T07:33:18.494Z,17.92
2018-09-03T07:35:47.713Z,17.98
2018-09-03T07:38:16.966Z,18.04
2018-09-03T07:40:46.164Z,18.08
2018-09-03T07:43:15.458Z,18.16
2018-09-03T07:45:44.514Z,18.26
2018-09-03T07:48:13.825Z,18.38
2018-09-03T07:50:42.760Z,18.48
2018-09-03T07:53:11.843Z,18.52
2018-09-03T07:55:41.560Z,18.55
2018-09-03T07:58:10.945Z,18.58
2018-09-03T08:00:40.048Z,18.66
2018-09-03T08:03:09.173Z,18.71
2018-09-03T08:05:38.173Z,18.77
2018-09-03T08:08:07.589Z,18.88
2018-09-03T08:10:36.838Z,18.86
2018-09-03T08:13:06.194Z,18.90
2018-09-03T08:15:35.650Z,18.93
2018-09-03T08:18:05.116Z,18.97
2018-09-03T08:20:33.984Z,19.03
2018-09-03T08:23:02.948Z,19.06
2018-09-03T08:25:31.972Z,19.00
2018-09-03T08:28:00.899Z,19.63
2018-09-03T08:30:29.962Z,21.50
2018-09-03T08:32:59.196Z,22.71
2018-09-03T08:35:28.148Z,22.93
2018-09-03T08:37:57.187Z,23.34
2018-09-03T08:40:26.332Z,22.75
2018-09-03T08:42:55.299Z,22.12
2018-09-03T08:45:24.292Z,21.56
2018-09-03T08:47:53.373Z,21.63
2018-09-03T08:50:22.466Z,21.67
2018-09-03T08:52:51.459Z,21.80
2018-09-03T08:55:20.278Z,21.77
2018-09-03T08:57:49.353Z,21.79
2018-09-03T09:00:18.823Z,22.04
2018-09-03T09:02:48.309Z,21.93
2018-09-03T09:05:17.809Z,22.08
2018-09-03T09:07:47.286Z,22.14
2018-09-03T09:10:16.505Z,22.41
2018-09-03T09:12:45.346Z,22.50
2018-09-03T09:15:14.284Z,22.55
2018-09-03T09:17:43.492Z,22.68
2018-09-03T09:20:12.377Z,22.53
2018-09-03T09:22:41.585Z,22.36
2018-09-03T09:25:10.750Z,22.38
2018-09-03T09:27:39.654Z,22.38
2018-09-03T09:30:08.688Z,22.46
2018-09-03T09:32:37.902Z,22.75
2018-09-03T09:35:06.916Z,22.96
2018-09-03T09:37:35.967Z,23.11
2018-09-03T09:40:06.218Z,23.07
2018-09-03T09:42:35.331Z,22.87
2018-09-03T09:45:04.302Z,22.90
2018-09-03T09:47:33.425Z,22.86
2018-09-03T09:50:02.443Z,23.01
2018-09-03T09:52:31.605Z,23.01
2018-09-03T09:55:00.848Z,23.02
2018-09-03T09:57:29.883Z,23.01
2018-09-03T09:59:58.870Z,23.07
2018-09-03T10:02:28.093Z,23.11
2018-09-03T10:04:57.371Z,23.58
2018-09-03T10:07:26.374Z,23.70
2018-09-03T10:09:55.719Z,23.17
2018-09-03T10:12:30.080Z,22.77
2018-09-03T10:14:59.274Z,22.59
2018-09-03T10:17:28.828Z,22.59
2018-09-03T10:19:58.038Z,22.60
2018-09-03T10:22:27.437Z,22.48
2018-09-03T10:24:56.462Z,22.53
2018-09-03T10:27:25.435Z,22.58
2018-09-03T10:29:54.640Z,22.96
2018-09-03T10:32:23.838Z,23.23
2018-09-03T10:34:52.609Z,23.13
2018-09-03T10:37:21.837Z,22.86
2018-09-03T10:39:50.779Z,23.02
2018-09-03T10:42:24.932Z,23.22
2018-09-03T10:47:46.963Z,22.81
2018-09-03T10:50:16.146Z,22.69
2018-09-03T10:52:45.026Z,22.48
2018-09-03T10:55:13.908Z,22.52
2018-09-03T10:57:42.907Z,22.75
2018-09-03T11:00:11.901Z,22.87
2018-09-03T11:02:41.019Z,22.79
2018-09-03T11:05:10.177Z,22.84
2018-09-03T11:07:39.832Z,22.75
2018-09-03T11:10:08.934Z,22.54
2018-09-03T11:12:38.163Z,22.81
2018-09-03T11:15:07.177Z,22.95
2018-09-03T11:17:36.608Z,23.03
2018-09-03T11:20:08.335Z,23.11
2018-09-03T11:22:37.545Z,23.25
2018-09-03T11:25:06.683Z,23.25
2018-09-03T11:27:36.036Z,23.26
2018-09-03T11:30:06.035Z,23.34
2018-09-03T11:32:35.119Z,23.38
2018-09-03T11:35:04.133Z,23.42
2018-09-03T11:37:33.495Z,23.34
2018-09-03T11:40:02.622Z,23.37
2018-09-03T11:42:31.507Z,23.44
2018-09-03T11:45:00.713Z,23.34
2018-09-03T11:47:29.660Z,23.39
2018-09-03T11:49:58.731Z,23.35
2018-09-03T11:52:27.828Z,23.44
2018-09-03T11:54:56.810Z,23.45
2018-09-03T11:57:25.687Z,23.40
2018-09-03T11:59:54.748Z,23.53
2018-09-03T12:02:23.652Z,23.66
2018-09-03T12:04:52.707Z,23.50
2018-09-03T12:07:23.161Z,23.58
2018-09-03T12:09:52.410Z,23.60
2018-09-03T12:12:21.313Z,23.75
2018-09-03T12:17:43.004Z,23.59
2018-09-03T12:20:12.123Z,23.58
2018-09-03T12:22:41.035Z,23.69
2018-09-03T12:25:10.291Z,23.57
2018-09-03T12:27:39.296Z,23.36
2018-09-03T12:30:08.954Z,23.39
2018-09-03T12:32:38.126Z,23.46
2018-09-03T12:35:07.515Z,23.38
2018-09-03T12:37:36.569Z,21.80
2018-09-03T12:40:06.260Z,23.38
2018-09-03T12:42:35.432Z,23.46
2018-09-03T12:45:04.403Z,23.42
2018-09-03T12:47:33.686Z,23.21
2018-09-03T12:50:02.619Z,23.13
2018-09-03T12:52:31.495Z,23.34
2018-09-03T12:55:00.536Z,23.36
2018-09-03T12:57:29.376Z,23.24
2018-09-03T13:00:05.150Z,23.12
2018-09-03T13:02:27.423Z,23.17
2018-09-03T13:04:56.429Z,23.04
2018-09-03T13:07:25.397Z,23.02
2018-09-03T13:09:54.275Z,23.13
2018-09-03T13:12:23.213Z,23.24
2018-09-03T13:14:52.357Z,23.27
2018-09-03T13:17:21.257Z,22.99
2018-09-03T13:19:51.199Z,23.27
2018-09-03T13:22:20.398Z,23.32
2018-09-03T13:24:49.231Z,23.45
2018-09-03T13:27:18.154Z,22.79
2018-09-03T13:29:47.132Z,23.31
2018-09-03T13:32:16.661Z,23.34
2018-09-03T13:34:45.541Z,23.39
2018-09-03T13:37:14.703Z,23.46
2018-09-03T13:39:44.079Z,23.20
2018-09-03T13:42:13.012Z,23.07
2018-09-03T13:44:41.932Z,23.17
2018-09-03T13:47:10.889Z,23.17
2018-09-03T13:49:40.033Z,23.25
2018-09-03T13:52:09.071Z,23.13
2018-09-03T13:54:38.039Z,23.17
2018-09-03T13:57:07.024Z,23.11
2018-09-03T13:59:36.170Z,23.18
2018-09-03T14:02:05.522Z,23.12
2018-09-03T14:04:34.615Z,23.19
2018-09-03T14:07:03.457Z,23.23
2018-09-03T14:09:33.643Z,23.24
2018-09-03T14:12:03.009Z,23.12
2018-09-03T14:14:32.067Z,23.23
2018-09-03T14:17:01.127Z,23.13
2018-09-03T14:19:30.095Z,22.93
2018-09-03T14:21:59.405Z,22.83
2018-09-03T14:24:28.428Z,22.73
2018-09-03T14:26:57.543Z,22.81
2018-09-03T14:29:26.468Z,22.84
2018-09-03T14:31:55.408Z,22.86
2018-09-03T14:34:24.443Z,22.74
2018-09-03T14:36:53.390Z,22.54
2018-09-03T14:39:23.504Z,22.36
2018-09-03T14:41:52.860Z,22.52
2018-09-03T14:44:22.146Z,22.48
2018-09-03T14:46:51.036Z,22.44
2018-09-03T14:49:20.089Z,22.39
2018-09-03T14:51:49.017Z,22.45
2018-09-03T14:54:18.457Z,22.35
2018-09-03T14:56:47.458Z,22.32
2018-09-03T14:59:16.588Z,22.34
2018-09-03T15:01:45.760Z,22.23
2018-09-03T15:04:15.102Z,22.24
2018-09-03T15:06:44.000Z,22.07
2018-09-03T15:09:13.909Z,22.25
2018-09-03T15:11:43.198Z,22.24
2018-09-03T15:14:12.505Z,22.00
2018-09-03T15:16:41.734Z,21.82
2018-09-03T15:19:11.200Z,21.82
2018-09-03T15:21:40.454Z,21.83
2018-09-03T15:24:09.880Z,21.80
2018-09-03T15:26:39.486Z,21.73
2018-09-03T15:29:08.914Z,21.65
2018-09-03T15:31:38.367Z,21.61
2018-09-03T15:34:07.356Z,21.57
2018-09-03T15:36:36.451Z,21.44
2018-09-03T15:39:08.524Z,21.47
2018-09-03T15:41:37.824Z,21.51
2018-09-03T15:44:06.952Z,20.64
2018-09-03T15:46:36.203Z,21.30
2018-09-03T15:49:06.012Z,21.28
2018-09-03T15:51:34.960Z,21.32
2018-09-03T15:54:04.550Z,21.35
2018-09-03T15:56:33.739Z,21.36
2018-09-03T15:59:03.116Z,21.15
2018-09-03T16:01:32.447Z,21.08
2018-09-03T16:04:01.534Z,21.03
2018-09-03T16:06:30.523Z,21.13
2018-09-03T16:08:59.583Z,21.15
2018-09-03T16:11:28.588Z,21.07
2018-09-03T16:13:57.750Z,21.04
2018-09-03T16:16:26.993Z,21.07
2018-09-03T16:18:55.915Z,21.00
2018-09-03T16:21:24.984Z,21.06
2018-09-03T16:23:53.895Z,20.91
2018-09-03T16:26:22.908Z,20.99
2018-09-03T16:28:51.961Z,21.03
2018-09-03T16:31:20.999Z,21.04
2018-09-03T16:33:50.180Z,21.02
2018-09-03T16:36:19.649Z,20.97
2018-09-03T16:38:48.943Z,20.79
2018-09-03T16:41:18.608Z,20.84
2018-09-03T16:43:47.947Z,20.94
2018-09-03T16:46:17.074Z,20.97
2018-09-03T16:48:46.061Z,20.94
2018-09-03T16:51:15.300Z,20.94
2018-09-03T16:53:44.126Z,20.79
2018-09-03T16:56:13.708Z,20.70
2018-09-03T16:58:42.995Z,20.79
2018-09-03T17:01:12.367Z,20.79
2018-09-03T17:03:41.284Z,20.70
2018-09-03T17:06:10.682Z,20.76
2018-09-03T17:08:39.680Z,20.79
2018-09-03T17:11:08.661Z,20.77
2018-09-03T17:13:37.625Z,20.73
2018-09-03T17:16:06.512Z,20.69
2018-09-03T17:18:35.596Z,20.70
2018-09-03T17:21:04.597Z,20.72
2018-09-03T17:23:33.903Z,20.55
2018-09-03T17:26:02.973Z,20.63
2018-09-03T17:28:32.441Z,20.57
2018-09-03T17:31:01.637Z,20.55
2018-09-03T17:33:30.910Z,20.54
2018-09-03T17:36:00.246Z,20.55
2018-09-03T17:38:29.306Z,20.45
2018-09-03T17:40:58.635Z,20.45
2018-09-03T17:43:27.792Z,20.35
2018-09-03T17:45:57.296Z,20.37
2018-09-03T17:48:26.758Z,20.39
2018-09-03T17:50:56.064Z,20.40
2018-09-03T17:53:25.005Z,20.39
2018-09-03T17:55:54.123Z,20.39
2018-09-03T17:58:23.116Z,20.31
2018-09-03T18:00:52.778Z,20.28
2018-09-03T18:03:22.334Z,20.25
2018-09-03T18:05:51.177Z,20.23
2018-09-03T18:08:20.907Z,20.15
2018-09-03T18:10:50.805Z,20.12
2018-09-03T18:13:20.280Z,20.12
2018-09-03T18:15:49.312Z,20.13
2018-09-03T18:18:18.590Z,20.10
2018-09-03T18:20:48.059Z,20.09
2018-09-03T18:23:17.178Z,20.11
2018-09-03T18:25:46.280Z,20.13
2018-09-03T18:28:15.911Z,20.05
2018-09-03T18:30:45.392Z,19.98
2018-09-03T18:33:14.484Z,20.00
2018-09-03T18:35:43.624Z,19.97
2018-09-03T18:38:13.727Z,19.97
2018-09-03T18:40:43.609Z,19.93
2018-09-03T18:43:12.646Z,19.89
2018-09-03T18:45:41.552Z,19.94
2018-09-03T18:48:19.013Z,19.93
2018-09-03T18:50:49.258Z,19.88
2018-09-03T18:53:18.564Z,19.89
2018-09-03T18:55:48.491Z,19.89
2018-09-03T18:58:18.229Z,19.87
2018-09-03T19:00:47.458Z,19.85
2018-09-03T19:03:17.488Z,19.84
2018-09-03T19:05:46.809Z,19.79
2018-09-03T19:08:16.794Z,19.83
2018-09-03T19:10:46.316Z,19.82
2018-09-03T19:13:15.822Z,19.81
2018-09-03T19:15:44.947Z,19.78
2018-09-03T19:18:14.111Z,19.67
2018-09-03T19:20:43.475Z,19.64
2018-09-03T19:23:12.517Z,19.61
2018-09-03T19:25:41.658Z,19.57
2018-09-03T19:28:10.696Z,19.56
2018-09-03T19:30:40.076Z,19.58
2018-09-03T19:33:09.201Z,19.55
2018-09-03T19:35:39.061Z,19.54
2018-09-03T19:38:08.261Z,19.48
2018-09-03T19:40:37.275Z,19.45
2018-09-03T19:43:06.283Z,19.44
2018-09-03T19:45:36.166Z,19.45
2018-09-03T19:48:05.372Z,19.44
2018-09-03T19:50:34.781Z,19.41
2018-09-03T19:53:04.051Z,19.33
2018-09-03T19:55:33.013Z,19.24
2018-09-03T19:58:07.643Z,19.19
2018-09-03T20:00:36.832Z,19.14
2018-09-03T20:03:06.069Z,19.12
2018-09-03T20:05:35.590Z,19.09
2018-09-03T20:08:04.675Z,18.95
2018-09-03T20:10:33.876Z,19.03
2018-09-03T20:13:03.938Z,19.01
2018-09-03T20:15:33.001Z,19.02
2018-09-03T20:18:02.375Z,19.03
2018-09-03T20:20:31.716Z,19.02
2018-09-03T20:23:00.881Z,18.97
2018-09-03T20:25:30.042Z,18.91
2018-09-03T20:27:59.158Z,18.89
2018-09-03T20:30:28.440Z,18.89
2018-09-03T20:32:58.041Z,18.85
2018-09-03T20:35:27.059Z,18.81
2018-09-03T20:37:56.652Z,18.81
2018-09-03T20:40:25.673Z,18.83
2018-09-03T20:42:54.859Z,18.80
2018-09-03T20:45:23.979Z,18.76
2018-09-03T20:47:59.702Z,18.72
2018-09-03T20:50:28.751Z,18.70
2018-09-03T20:52:58.437Z,18.66
2018-09-03T20:55:27.563Z,18.64
2018-09-03T20:57:56.627Z,18.61
2018-09-03T21:00:25.525Z,18.61
2018-09-03T21:02:54.483Z,18.61
2018-09-03T21:05:24.151Z,18.56
2018-09-03T21:07:53.422Z,18.55
2018-09-03T21:10:22.806Z,18.56
2018-09-03T21:12:51.815Z,18.54
2018-09-03T21:15:20.938Z,18.55
2018-09-03T21:17:49.816Z,18.49
2018-09-03T21:20:19.409Z,18.45
2018-09-03T21:22:48.497Z,18.47
2018-09-03T21:25:17.501Z,18.49
2018-09-03T21:27:46.541Z,18.49
2018-09-03T21:30:16.521Z,18.50
2018-09-03T21:32:45.497Z,18.45
2018-09-03T21:35:14.503Z,18.41
2018-09-03T21:37:43.835Z,18.43
2018-09-03T21:40:12.755Z,18.42
2018-09-03T21:42:41.609Z,18.39
2018-09-03T21:45:10.574Z,18.38
2018-09-03T21:47:39.725Z,18.34
2018-09-03T21:50:08.926Z,18.33
2018-09-03T21:52:39.034Z,18.36
2018-09-03T21:55:08.691Z,18.37
2018-09-03T21:57:37.886Z,18.37
2018-09-03T22:00:06.976Z,18.34
2018-09-03T22:02:36.119Z,18.32
2018-09-03T22:05:05.387Z,18.29
2018-09-03T22:07:34.484Z,18.26
2018-09-03T22:10:03.440Z,18.29
2018-09-03T22:12:32.630Z,18.29
2018-09-03T22:15:01.757Z,18.29
2018-09-03T22:17:30.760Z,18.24
2018-09-03T22:19:59.797Z,18.23
2018-09-03T22:22:28.854Z,18.24
2018-09-03T22:24:57.854Z,18.24
2018-09-03T22:27:27.099Z,18.21
2018-09-03T22:29:56.218Z,18.15
2018-09-03T22:32:25.487Z,17.92
2018-09-03T22:34:54.468Z,17.77
2018-09-03T22:37:24.451Z,17.63
2018-09-03T22:39:53.449Z,17.56
2018-09-03T22:42:26.159Z,17.49
2018-09-03T22:44:56.506Z,17.44
2018-09-03T22:47:25.492Z,17.43
2018-09-03T22:49:54.386Z,17.43
2018-09-03T22:52:23.561Z,17.38
2018-09-03T22:54:52.499Z,17.39
2018-09-03T22:57:21.441Z,17.42
2018-09-03T22:59:50.657Z,17.35
2018-09-03T23:02:19.610Z,17.32
2018-09-03T23:04:48.766Z,17.31
2018-09-03T23:07:17.934Z,17.35
2018-09-03T23:09:47.236Z,17.40
2018-09-03T23:12:16.857Z,17.34
2018-09-03T23:14:45.811Z,17.34
2018-09-03T23:17:14.737Z,17.41
2018-09-03T23:19:43.737Z,17.28
2018-09-03T23:22:12.681Z,17.15
2018-09-03T23:24:41.568Z,17.07
2018-09-03T23:27:10.554Z,16.95
2018-09-03T23:29:39.772Z,16.90
2018-09-03T23:32:09.103Z,16.91
2018-09-03T23:34:38.034Z,17.00
2018-09-03T23:37:07.012Z,17.02
2018-09-03T23:39:36.004Z,16.99
2018-09-03T23:42:05.206Z,17.00
2018-09-03T23:44:34.184Z,16.29
2018-09-03T23:47:03.137Z,16.89
2018-09-03T23:49:32.136Z,16.86
2018-09-03T23:52:01.206Z,16.78
2018-09-03T23:54:30.071Z,16.70
2018-09-03T23:56:58.969Z,16.66
2018-09-03T23:59:28.030Z,16.66
